createdAt,value
2022-12-25T00:00:06.991Z,22.08
2022-12-25T00:02:34.137Z,23.55
2022-12-25T00:05:01.418Z,23.67
2022-12-25T00:07:28.383Z,23.55
2022-12-25T00:09:58.152Z,25.45
2022-12-25T00:12:25.238Z,25.27
2022-12-25T00:14:52.277Z,24.95
2022-12-25T00:17:19.363Z,24.23
2022-12-25T00:19:46.445Z,21.20
2022-12-25T00:22:13.575Z,37.90
2022-12-25T00:24:40.678Z,24.77
2022-12-25T00:27:07.866Z,23.63
2022-12-25T00:29:35.674Z,22.75
2022-12-25T00:32:02.987Z,23.33
2022-12-25T00:34:30.076Z,22.33
2022-12-25T00:36:57.306Z,25.40
2022-12-25T00:39:24.564Z,21.35
2022-12-25T00:42:10.447Z,30.50
2022-12-25T00:44:37.423Z,28.83
2022-12-25T00:47:05.077Z,37.25
2022-12-25T00:49:34.925Z,26.83
2022-12-25T00:52:02.015Z,21.30
2022-12-25T00:54:29.083Z,22.52
2022-12-25T00:56:56.238Z,22.85
2022-12-25T00:59:23.370Z,22.85
2022-12-25T01:01:50.761Z,23.75
2022-12-25T01:04:18.295Z,24.73
2022-12-25T01:06:45.421Z,25.98
2022-12-25T01:09:31.026Z,27.90
2022-12-25T01:12:00.607Z,27.10
2022-12-25T01:14:27.749Z,25.63
2022-12-25T01:16:54.891Z,28.13
2022-12-25T01:19:22.202Z,29.90
2022-12-25T01:21:49.334Z,28.83
2022-12-25T01:24:16.627Z,30.90
2022-12-25T01:26:43.723Z,29.65
2022-12-25T01:29:10.781Z,29.10
2022-12-25T01:31:37.952Z,32.53
2022-12-25T01:34:04.971Z,33.50
2022-12-25T01:36:32.467Z,27.73
2022-12-25T01:39:00.130Z,25.98
2022-12-25T01:41:27.245Z,25.55
2022-12-25T01:44:15.752Z,23.80
2022-12-25T01:46:43.981Z,24.25
2022-12-25T01:49:14.077Z,23.10
2022-12-25T01:51:59.531Z,22.45
2022-12-25T01:54:37.723Z,21.58
2022-12-25T01:57:09.942Z,22.80
2022-12-25T01:59:37.039Z,20.92
2022-12-25T02:02:04.595Z,20.77
2022-12-25T02:04:40.251Z,19.50
2022-12-25T02:07:20.095Z,19.05
2022-12-25T02:09:48.279Z,19.10
2022-12-25T02:12:26.863Z,23.13
2022-12-25T02:15:05.031Z,21.02
2022-12-25T02:17:59.127Z,22.20
2022-12-25T02:20:43.981Z,18.90
2022-12-25T02:23:46.879Z,18.95
2022-12-25T02:26:28.029Z,18.40
2022-12-25T02:29:01.757Z,17.67
2022-12-25T02:31:44.827Z,18.48
2022-12-25T02:34:26.244Z,18.63
2022-12-25T02:37:24.281Z,17.05
2022-12-25T02:40:09.482Z,18.23
2022-12-25T02:43:16.077Z,17.13
2022-12-25T02:46:14.718Z,17.23
2022-12-25T02:49:09.486Z,16.55
2022-12-25T02:52:01.139Z,15.70
2022-12-25T02:54:55.788Z,16.05
2022-12-25T02:57:46.829Z,16.65
2022-12-25T03:00:33.225Z,15.70
2022-12-25T03:03:21.359Z,15.93
2022-12-25T03:06:08.764Z,15.73
2022-12-25T03:08:40.930Z,15.70
2022-12-25T03:11:46.904Z,16.02
2022-12-25T03:14:32.793Z,15.63
2022-12-25T03:17:01.194Z,15.95
2022-12-25T03:19:52.815Z,15.15
2022-12-25T03:22:46.617Z,14.93
2022-12-25T03:25:33.445Z,14.57
2022-12-25T03:28:01.058Z,15.23
2022-12-25T03:31:12.097Z,14.90
2022-12-25T03:34:22.547Z,14.65
2022-12-25T03:37:09.221Z,14.48
2022-12-25T03:40:44.728Z,14.88
2022-12-25T03:44:04.011Z,15.15
2022-12-25T03:47:11.206Z,14.55
2022-12-25T03:50:15.057Z,14.48
2022-12-25T03:53:03.044Z,14.30
2022-12-25T03:55:50.007Z,15.73
2022-12-25T03:58:43.556Z,14.90
2022-12-25T04:01:29.269Z,13.95
2022-12-25T04:04:15.011Z,15.10
2022-12-25T04:07:01.057Z,15.33
2022-12-25T04:09:47.077Z,14.43
2022-12-25T04:12:32.449Z,14.23
2022-12-25T04:15:18.012Z,15.68
2022-12-25T04:18:03.424Z,15.95
2022-12-25T04:20:49.032Z,15.93
2022-12-25T04:23:34.633Z,16.33
2022-12-25T04:26:20.184Z,16.98
2022-12-25T04:29:05.741Z,17.20
2022-12-25T04:31:53.807Z,17.85
2022-12-25T04:34:39.510Z,16.25
2022-12-25T04:37:06.545Z,17.20
2022-12-25T04:39:33.704Z,16.88
2022-12-25T04:42:01.124Z,16.92
2022-12-25T04:44:28.431Z,17.58
2022-12-25T04:46:55.928Z,17.00
2022-12-25T04:49:23.154Z,17.55
2022-12-25T04:51:50.378Z,18.23
2022-12-25T04:54:17.622Z,18.90
2022-12-25T04:56:45.989Z,19.15
2022-12-25T04:59:13.551Z,18.30
2022-12-25T05:01:40.793Z,18.50
2022-12-25T05:04:08.018Z,19.90
2022-12-25T05:06:35.067Z,19.05
2022-12-25T05:09:02.117Z,19.70
2022-12-25T05:11:29.250Z,19.27
2022-12-25T05:13:57.841Z,19.70
2022-12-25T05:16:26.410Z,20.25
2022-12-25T05:18:53.717Z,20.33
2022-12-25T05:21:20.995Z,20.15
2022-12-25T05:23:52.620Z,19.52
2022-12-25T05:26:23.360Z,20.05
2022-12-25T05:28:51.052Z,18.83
2022-12-25T05:31:19.368Z,19.88
2022-12-25T05:33:50.218Z,19.23
2022-12-25T05:36:17.882Z,19.83
2022-12-25T05:38:44.933Z,20.65
2022-12-25T05:41:12.169Z,21.25
2022-12-25T05:43:39.297Z,20.80
2022-12-25T05:46:09.054Z,20.25
2022-12-25T05:48:38.132Z,21.55
2022-12-25T05:51:14.192Z,21.27
2022-12-25T05:53:43.160Z,22.55
2022-12-25T05:56:11.104Z,23.00
2022-12-25T05:58:40.467Z,22.23
2022-12-25T06:01:20.842Z,22.88
2022-12-25T06:03:48.448Z,21.63
2022-12-25T06:06:15.708Z,22.77
2022-12-25T06:08:43.038Z,23.08
2022-12-25T06:11:12.846Z,22.13
2022-12-25T06:13:40.232Z,22.77
2022-12-25T06:16:11.055Z,21.45
2022-12-25T06:18:46.766Z,22.55
2022-12-25T06:21:15.587Z,22.20
2022-12-25T06:23:43.671Z,22.25
2022-12-25T06:26:16.742Z,21.65
2022-12-25T06:28:44.833Z,22.40
2022-12-25T06:31:19.455Z,22.80
2022-12-25T06:33:47.348Z,21.45
2022-12-25T06:36:20.834Z,21.92
2022-12-25T06:38:48.591Z,21.48
2022-12-25T06:41:27.097Z,21.17
2022-12-25T06:43:57.387Z,20.38
2022-12-25T06:46:27.769Z,19.88
2022-12-25T06:48:54.901Z,19.38
2022-12-25T06:51:26.305Z,20.38
2022-12-25T06:53:55.275Z,19.80
2022-12-25T06:56:26.907Z,18.40
2022-12-25T06:59:01.766Z,20.58
2022-12-25T07:01:54.402Z,19.65
2022-12-25T07:04:28.522Z,18.48
2022-12-25T07:06:55.697Z,17.25
2022-12-25T07:09:22.858Z,17.88
2022-12-25T07:11:49.861Z,17.48
2022-12-25T07:14:24.444Z,17.92
2022-12-25T07:16:51.851Z,16.13
2022-12-25T07:19:19.419Z,15.43
2022-12-25T07:21:47.293Z,16.15
2022-12-25T07:24:22.437Z,15.18
2022-12-25T07:26:50.823Z,14.77
2022-12-25T07:29:19.566Z,14.27
2022-12-25T07:31:47.760Z,13.93
2022-12-25T07:34:17.152Z,14.07
2022-12-25T07:36:44.264Z,13.63
2022-12-25T07:39:11.945Z,13.75
2022-12-25T07:41:39.135Z,12.25
2022-12-25T07:44:16.033Z,11.77
2022-12-25T07:46:43.469Z,12.45
2022-12-25T07:49:11.297Z,11.88
2022-12-25T07:51:38.680Z,11.95
2022-12-25T07:54:05.938Z,11.95
2022-12-25T07:56:33.170Z,12.55
2022-12-25T07:59:00.328Z,11.70
2022-12-25T08:01:28.727Z,11.88
2022-12-25T08:04:02.049Z,11.50
2022-12-25T08:06:33.284Z,11.85
2022-12-25T08:09:08.300Z,11.23
2022-12-25T08:11:36.723Z,11.03
2022-12-25T08:14:07.011Z,10.90
2022-12-25T08:16:34.654Z,11.63
2022-12-25T08:19:02.056Z,10.73
2022-12-25T08:21:29.079Z,11.10
2022-12-25T08:23:56.348Z,10.95
2022-12-25T08:26:24.486Z,10.85
2022-12-25T08:28:51.990Z,10.50
2022-12-25T08:31:28.255Z,10.55
2022-12-25T08:33:58.418Z,10.32
2022-12-25T08:36:26.769Z,10.70
2022-12-25T08:39:00.393Z,10.15
2022-12-25T08:41:30.259Z,10.07
2022-12-25T08:43:57.633Z,10.57
2022-12-25T08:46:25.101Z,10.40
2022-12-25T08:48:52.328Z,9.77
2022-12-25T08:51:21.959Z,9.00
2022-12-25T08:53:51.900Z,9.50
2022-12-25T08:56:20.352Z,9.80
2022-12-25T08:58:47.427Z,9.52
2022-12-25T09:01:14.727Z,9.02
2022-12-25T09:03:43.053Z,9.32
2022-12-25T09:06:16.281Z,9.60
2022-12-25T09:08:49.162Z,9.60
2022-12-25T09:11:19.007Z,9.10
2022-12-25T09:13:46.314Z,9.18
2022-12-25T09:16:19.117Z,8.57
2022-12-25T09:18:46.497Z,8.77
2022-12-25T09:21:16.117Z,9.27
2022-12-25T09:23:43.698Z,9.05
2022-12-25T09:26:14.193Z,9.18
2022-12-25T09:28:50.190Z,9.25
2022-12-25T09:31:18.567Z,9.82
2022-12-25T09:33:45.748Z,9.38
2022-12-25T09:36:12.822Z,8.68
2022-12-25T09:38:39.933Z,9.23
2022-12-25T09:41:28.339Z,9.48
2022-12-25T09:44:08.469Z,9.25
2022-12-25T09:47:40.255Z,9.32
2022-12-25T09:50:39.840Z,9.30
2022-12-25T09:53:25.133Z,9.27
2022-12-25T09:56:22.286Z,8.93
2022-12-25T09:58:49.306Z,8.93
2022-12-25T10:02:15.256Z,8.77
2022-12-25T10:05:06.141Z,8.52
2022-12-25T10:08:07.185Z,9.05
2022-12-25T10:11:03.041Z,8.38
2022-12-25T10:14:09.298Z,8.15
2022-12-25T10:17:13.185Z,8.52
2022-12-25T10:20:24.682Z,8.63
2022-12-25T10:22:59.571Z,8.50
2022-12-25T10:25:26.745Z,8.63
2022-12-25T10:28:03.196Z,8.63
2022-12-25T10:30:31.472Z,8.15
2022-12-25T10:32:59.093Z,8.68
2022-12-25T10:35:29.225Z,8.63
2022-12-25T10:38:06.400Z,7.93
2022-12-25T10:40:52.083Z,9.05
2022-12-25T10:43:30.752Z,9.63
2022-12-25T10:45:59.459Z,8.60
2022-12-25T10:48:29.587Z,8.27
2022-12-25T10:50:57.052Z,8.65
2022-12-25T10:53:29.437Z,8.00
2022-12-25T10:56:01.763Z,8.00
2022-12-25T10:58:33.454Z,7.68
2022-12-25T11:01:05.309Z,8.63
2022-12-25T11:03:36.088Z,8.23
2022-12-25T11:06:03.842Z,8.13
2022-12-25T11:08:33.574Z,8.25
2022-12-25T11:11:06.305Z,8.32
2022-12-25T11:13:49.389Z,8.38
2022-12-25T11:16:38.314Z,7.57
2022-12-25T11:19:29.135Z,7.88
2022-12-25T11:22:00.484Z,8.52
2022-12-25T11:24:34.739Z,8.77
2022-12-25T11:27:08.870Z,8.70
2022-12-25T11:29:53.213Z,8.85
2022-12-25T11:32:34.573Z,7.97
2022-12-25T11:35:02.819Z,8.20
2022-12-25T11:37:43.491Z,8.40
2022-12-25T11:40:23.392Z,8.90
2022-12-25T11:43:04.093Z,8.77
2022-12-25T11:45:40.507Z,8.23
2022-12-25T11:48:22.233Z,8.48
2022-12-25T11:50:59.649Z,8.50
2022-12-25T11:53:52.755Z,9.18
2022-12-25T11:56:26.678Z,9.30
2022-12-25T11:59:01.134Z,8.60
2022-12-25T12:01:37.955Z,9.00
2022-12-25T12:04:17.421Z,8.73
2022-12-25T12:06:51.192Z,9.57
2022-12-25T12:09:40.000Z,9.73
2022-12-25T12:12:22.059Z,9.48
2022-12-25T12:15:28.799Z,10.48
2022-12-25T12:18:21.008Z,10.40
2022-12-25T12:21:20.898Z,11.65
2022-12-25T12:24:19.309Z,11.23
2022-12-25T12:27:00.052Z,11.45
2022-12-25T12:29:42.578Z,10.30
2022-12-25T12:32:41.825Z,10.65
2022-12-25T12:35:21.786Z,9.75
2022-12-25T12:37:56.217Z,9.52
2022-12-25T12:40:38.451Z,9.07
2022-12-25T12:43:19.897Z,9.13
2022-12-25T12:45:56.960Z,9.05
2022-12-25T12:48:29.446Z,9.32
2022-12-25T12:51:09.609Z,9.50
2022-12-25T12:53:40.360Z,8.95
2022-12-25T12:56:18.941Z,9.43
2022-12-25T12:58:50.968Z,9.00
2022-12-25T13:01:28.070Z,8.48
2022-12-25T13:04:39.900Z,8.60
2022-12-25T13:07:43.971Z,8.43
2022-12-25T13:10:41.828Z,9.40
2022-12-25T13:13:24.950Z,8.45
2022-12-25T13:15:52.611Z,9.00
2022-12-25T13:18:20.591Z,8.90
2022-12-25T13:21:18.871Z,8.82
2022-12-25T13:23:46.174Z,8.55
2022-12-25T13:26:17.087Z,9.23
2022-12-25T13:28:47.292Z,8.40
2022-12-25T13:31:19.614Z,9.38
2022-12-25T13:34:06.001Z,9.38
2022-12-25T13:36:40.055Z,8.98
2022-12-25T13:39:16.355Z,9.23
2022-12-25T13:42:10.091Z,8.60
2022-12-25T13:44:52.433Z,9.65
2022-12-25T13:47:53.082Z,9.52
2022-12-25T13:50:30.601Z,9.60
2022-12-25T13:53:12.156Z,9.52
2022-12-25T13:55:40.200Z,10.07
2022-12-25T13:58:30.981Z,10.02
2022-12-25T14:01:00.801Z,10.48
2022-12-25T14:03:42.607Z,10.60
2022-12-25T14:06:28.159Z,9.88
2022-12-25T14:08:58.719Z,10.77
2022-12-25T14:11:33.418Z,10.18
2022-12-25T14:14:08.239Z,10.77
2022-12-25T14:16:35.662Z,12.02
2022-12-25T14:19:03.695Z,12.20
2022-12-25T14:21:49.325Z,12.13
2022-12-25T14:24:17.386Z,12.60
2022-12-25T14:26:44.633Z,12.38
2022-12-25T14:29:18.069Z,13.80
2022-12-25T14:31:47.639Z,13.65
2022-12-25T14:34:20.269Z,13.75
2022-12-25T14:36:48.683Z,13.43
2022-12-25T14:39:33.218Z,14.23
2022-12-25T14:42:23.407Z,13.77
2022-12-25T14:45:28.039Z,13.82
2022-12-25T14:47:59.059Z,14.32
2022-12-25T14:50:26.246Z,14.25
2022-12-25T14:52:54.072Z,13.07
2022-12-25T14:55:25.430Z,14.52
2022-12-25T14:58:07.756Z,13.70
2022-12-25T15:00:39.645Z,13.65
2022-12-25T15:03:20.944Z,13.40
2022-12-25T15:06:01.312Z,13.10
2022-12-25T15:08:30.946Z,12.77
2022-12-25T15:11:02.850Z,12.32
2022-12-25T15:13:31.887Z,13.63
2022-12-25T15:16:16.008Z,14.00
2022-12-25T15:18:45.925Z,13.38
2022-12-25T15:21:23.206Z,13.02
2022-12-25T15:23:50.376Z,14.02
2022-12-25T15:26:17.546Z,13.38
2022-12-25T15:28:44.740Z,14.48
2022-12-25T15:31:27.483Z,13.63
2022-12-25T15:34:01.343Z,13.70
2022-12-25T15:36:29.128Z,13.70
2022-12-25T15:38:56.696Z,14.63
2022-12-25T15:41:54.948Z,13.73
2022-12-25T15:44:22.580Z,13.85
2022-12-25T15:46:49.997Z,13.82
2022-12-25T15:49:17.600Z,13.95
2022-12-25T15:51:45.658Z,13.50
2022-12-25T15:54:13.053Z,14.00
2022-12-25T15:56:51.224Z,14.05
2022-12-25T15:59:20.481Z,14.65
2022-12-25T16:01:51.500Z,14.80
2022-12-25T16:04:20.361Z,14.45
2022-12-25T16:06:48.193Z,14.77
2022-12-25T16:09:22.580Z,14.52
2022-12-25T16:11:50.263Z,16.52
2022-12-25T16:14:19.477Z,16.42
2022-12-25T16:16:46.614Z,16.45
2022-12-25T16:19:13.934Z,16.90
2022-12-25T16:21:46.451Z,16.90
2022-12-25T16:24:14.407Z,16.42
2022-12-25T16:26:43.223Z,17.23
2022-12-25T16:29:10.726Z,16.00
2022-12-25T16:31:38.940Z,16.33
2022-12-25T16:34:07.549Z,16.25
2022-12-25T16:36:35.773Z,16.30
2022-12-25T16:39:04.242Z,16.40
2022-12-25T16:41:32.754Z,16.58
2022-12-25T16:44:09.284Z,16.90
2022-12-25T16:46:37.821Z,17.42
2022-12-25T16:49:05.094Z,16.70
2022-12-25T16:51:35.687Z,17.65
2022-12-25T16:54:02.974Z,16.52
2022-12-25T16:56:30.893Z,17.50
2022-12-25T16:58:58.878Z,17.05
2022-12-25T17:01:26.198Z,18.08
2022-12-25T17:03:53.559Z,19.15
2022-12-25T17:06:25.563Z,17.60
2022-12-25T17:08:57.002Z,17.75
2022-12-25T17:11:27.411Z,18.50
2022-12-25T17:13:55.402Z,17.48
2022-12-25T17:16:26.666Z,17.50
2022-12-25T17:19:04.259Z,18.10
2022-12-25T17:21:35.133Z,17.40
2022-12-25T17:24:04.156Z,17.92
2022-12-25T17:26:33.056Z,17.77
2022-12-25T17:29:01.121Z,18.48
2022-12-25T17:31:29.368Z,17.90
2022-12-25T17:33:56.694Z,17.88
2022-12-25T17:36:23.909Z,19.42
2022-12-25T17:38:51.178Z,18.70
2022-12-25T17:41:20.115Z,19.80
2022-12-25T17:43:48.302Z,19.23
2022-12-25T17:46:22.471Z,19.85
2022-12-25T17:48:51.132Z,18.80
2022-12-25T17:51:23.688Z,18.63
2022-12-25T17:53:54.619Z,18.83
2022-12-25T17:56:23.314Z,18.00
2022-12-25T17:58:53.414Z,17.90
2022-12-25T18:01:22.287Z,20.70
2022-12-25T18:03:50.120Z,20.17
2022-12-25T18:06:21.481Z,19.48
2022-12-25T18:08:49.655Z,19.73
2022-12-25T18:11:21.235Z,21.02
2022-12-25T18:13:52.230Z,19.83
2022-12-25T18:16:22.445Z,22.20
2022-12-25T18:18:52.558Z,21.90
2022-12-25T18:21:22.234Z,22.38
2022-12-25T18:23:50.267Z,23.48
2022-12-25T18:26:18.704Z,21.15
2022-12-25T18:28:46.311Z,22.65
2022-12-25T18:31:18.102Z,21.35
2022-12-25T18:33:46.040Z,21.60
2022-12-25T18:36:15.588Z,21.33
2022-12-25T18:38:43.387Z,23.00
2022-12-25T18:41:11.948Z,22.27
2022-12-25T18:43:52.361Z,23.90
2022-12-25T18:46:26.369Z,24.08
2022-12-25T18:48:56.088Z,23.42
2022-12-25T18:51:23.608Z,22.75
2022-12-25T18:53:51.264Z,23.30
2022-12-25T18:56:20.545Z,27.25
2022-12-25T18:58:47.997Z,24.85
2022-12-25T19:01:22.536Z,27.15
2022-12-25T19:03:52.587Z,31.00
2022-12-25T19:06:27.536Z,39.60
2022-12-25T19:08:55.855Z,36.03
2022-12-25T19:11:23.537Z,32.20
2022-12-25T19:13:50.848Z,23.00
2022-12-25T19:16:18.784Z,33.80
2022-12-25T19:18:47.386Z,26.60
2022-12-25T19:21:16.106Z,28.38
2022-12-25T19:23:43.393Z,21.50
2022-12-25T19:26:12.010Z,29.98
2022-12-25T19:28:40.119Z,23.15
2022-12-25T19:31:09.188Z,29.80
2022-12-25T19:33:41.221Z,29.17
2022-12-25T19:36:12.521Z,26.23
2022-12-25T19:38:40.208Z,29.65
2022-12-25T19:41:16.693Z,50.53
2022-12-25T19:43:50.151Z,28.00
2022-12-25T19:46:21.244Z,35.20
2022-12-25T19:48:49.157Z,33.33
2022-12-25T19:51:36.570Z,34.13
2022-12-25T19:54:05.480Z,38.10
2022-12-25T19:56:33.726Z,38.65
2022-12-25T19:59:01.195Z,43.20
2022-12-25T20:01:29.833Z,42.92
2022-12-25T20:03:57.659Z,36.67
2022-12-25T20:06:32.346Z,39.95
2022-12-25T20:09:10.631Z,40.60
2022-12-25T20:11:39.135Z,42.72
2022-12-25T20:14:08.412Z,45.25
2022-12-25T20:16:40.231Z,46.33
2022-12-25T20:19:08.103Z,40.38
2022-12-25T20:21:35.397Z,33.03
2022-12-25T20:24:02.588Z,40.28
2022-12-25T20:26:31.899Z,42.38
2022-12-25T20:28:59.678Z,37.47
2022-12-25T20:31:32.794Z,44.88
2022-12-25T20:34:05.542Z,41.53
2022-12-25T20:36:37.769Z,42.38
2022-12-25T20:39:11.485Z,39.80
2022-12-25T20:41:39.756Z,39.65
2022-12-25T20:44:10.429Z,42.42
2022-12-25T20:46:37.931Z,37.33
2022-12-25T20:49:05.396Z,44.08
2022-12-25T20:51:35.287Z,40.05
2022-12-25T20:54:07.632Z,39.15
2022-12-25T20:56:34.938Z,40.10
2022-12-25T20:59:02.441Z,32.22
2022-12-25T21:01:31.235Z,36.70
2022-12-25T21:03:59.655Z,30.67
2022-12-25T21:06:27.021Z,29.48
2022-12-25T21:08:54.409Z,36.83
2022-12-25T21:11:21.990Z,34.67
2022-12-25T21:13:49.839Z,40.00
2022-12-25T21:16:21.482Z,32.92
2022-12-25T21:18:53.249Z,42.70
2022-12-25T21:21:21.504Z,46.13
2022-12-25T21:23:48.988Z,37.85
2022-12-25T21:26:20.182Z,43.20
2022-12-25T21:28:55.044Z,44.25
2022-12-25T21:31:22.904Z,33.85
2022-12-25T21:33:54.023Z,26.23
2022-12-25T21:36:29.601Z,30.80
2022-12-25T21:39:07.149Z,39.15
2022-12-25T21:41:37.293Z,30.55
2022-12-25T21:44:05.446Z,23.33
2022-12-25T21:46:32.735Z,24.80
2022-12-25T21:49:00.827Z,26.90
2022-12-25T21:51:50.557Z,26.38
2022-12-25T21:54:20.564Z,31.55
2022-12-25T21:56:49.508Z,33.67
2022-12-25T21:59:21.959Z,33.20
2022-12-25T22:01:50.800Z,31.23
2022-12-25T22:04:20.785Z,32.85
2022-12-25T22:07:07.194Z,30.75
2022-12-25T22:09:34.952Z,41.30
2022-12-25T22:12:21.283Z,33.15
2022-12-25T22:14:56.769Z,39.45
2022-12-25T22:17:53.492Z,34.70
2022-12-25T22:20:33.611Z,31.73
2022-12-25T22:23:00.838Z,33.58
2022-12-25T22:25:28.197Z,25.50
2022-12-25T22:27:55.839Z,27.80
2022-12-25T22:30:28.798Z,32.00
2022-12-25T22:32:56.565Z,30.88
2022-12-25T22:35:24.662Z,30.92
2022-12-25T22:37:53.439Z,29.90
2022-12-25T22:40:21.095Z,25.15
2022-12-25T22:42:48.414Z,26.02
2022-12-25T22:45:15.750Z,24.75
2022-12-25T22:47:43.012Z,27.52
2022-12-25T22:50:14.628Z,28.63
2022-12-25T22:52:42.284Z,22.65
2022-12-25T22:55:10.305Z,23.73
2022-12-25T22:57:37.701Z,28.95
2022-12-25T23:00:08.960Z,28.73
2022-12-25T23:02:36.552Z,27.38
2022-12-25T23:05:05.403Z,26.67
2022-12-25T23:07:32.689Z,27.95
2022-12-25T23:09:59.679Z,30.05
2022-12-25T23:12:45.220Z,28.98
2022-12-25T23:15:12.421Z,28.37
2022-12-25T23:17:58.240Z,28.52
2022-12-25T23:20:44.218Z,27.90
2022-12-25T23:23:35.119Z,28.95
2022-12-25T23:26:09.877Z,25.85
2022-12-25T23:28:58.555Z,28.75
2022-12-25T23:31:39.498Z,27.08
2022-12-25T23:34:07.346Z,22.98
2022-12-25T23:36:35.149Z,22.45
2022-12-25T23:39:09.058Z,22.52
2022-12-25T23:41:42.086Z,24.27
2022-12-25T23:44:13.557Z,23.67
2022-12-25T23:46:41.720Z,23.52
2022-12-25T23:49:21.283Z,21.38
2022-12-25T23:51:48.616Z,21.25
2022-12-25T23:54:20.851Z,22.55
2022-12-25T23:56:49.381Z,21.10
2022-12-25T23:59:17.165Z,20.73
